Time;durP1;ratioP1;P1;durP2;ratioP2;P2;SDS_P1;SDS_P2;PMS_P1;PMS_P2;Temp;Humidity;BMP_temperature;BMP_pressure;BME280_temperature;BME280_humidity;BME280_pressure;Samples;Min_cycle;Max_cycle;Signal;HPM_P1;HPM_P2
2022/12/18 00:02:01;;;;;;;2.47;1.47;;;;;;;;;;5028390;28;20664;-60
2022/12/18 00:04:28;;;;;;;1.43;1.43;;;;;;;;;;5042923;28;20590;-60
2022/12/18 00:06:55;;;;;;;6.37;3.37;;;;;;;;;;5038751;28;20674;-60
2022/12/18 00:09:24;;;;;;;2.60;2.47;;;;;;;;;;5040924;28;20210;-60
2022/12/18 00:11:51;;;;;;;2.53;1.60;;;;;;;;;;5048180;28;20227;-59
2022/12/18 00:14:18;;;;;;;4.87;1.33;;;;;;;;;;5033913;28;20226;-60
2022/12/18 00:16:46;;;;;;;1.33;1.23;;;;;;;;;;5027850;28;20214;-60
2022/12/18 00:19:13;;;;;;;1.53;1.53;;;;;;;;;;5038806;28;20206;-60
2022/12/18 00:21:42;;;;;;;4.13;2.23;;;;;;;;;;5046608;28;20204;-60
2022/12/18 00:24:09;;;;;;;2.50;1.47;;;;;;;;;;5032304;28;20220;-60
2022/12/18 00:26:38;;;;;;;4.20;1.83;;;;;;;;;;5029671;28;20204;-60
2022/12/18 00:29:06;;;;;;;2.43;1.53;;;;;;;;;;5036157;28;20211;-60
2022/12/18 00:31:33;;;;;;;1.30;1.20;;;;;;;;;;5030381;28;20231;-60
2022/12/18 00:34:00;;;;;;;4.43;3.07;;;;;;;;;;5026931;28;20208;-60
2022/12/18 00:36:29;;;;;;;1.50;1.47;;;;;;;;;;5027933;28;20212;-60
2022/12/18 00:38:56;;;;;;;4.73;3.43;;;;;;;;;;5035630;28;20203;-60
2022/12/18 00:44:11;;;;;;;1.47;1.33;;;;;;;;;;5036614;28;20585;-59
2022/12/18 00:46:38;;;;;;;1.13;0.70;;;;;;;;;;5027464;28;20224;-59
2022/12/18 00:49:06;;;;;;;2.90;1.87;;;;;;;;;;5025784;28;20215;-60
2022/12/18 00:51:33;;;;;;;3.83;2.37;;;;;;;;;;5038324;28;20226;-59
2022/12/18 00:54:00;;;;;;;3.63;1.27;;;;;;;;;;5039831;28;20219;-60
2022/12/18 00:56:27;;;;;;;2.63;2.43;;;;;;;;;;5027512;28;20232;-59
2022/12/18 00:58:54;;;;;;;1.40;1.23;;;;;;;;;;5033131;28;20210;-60
2022/12/18 01:01:23;;;;;;;5.10;1.30;;;;;;;;;;5036439;28;20207;-60
2022/12/18 01:03:50;;;;;;;1.60;1.60;;;;;;;;;;5029954;28;20213;-60
2022/12/18 01:08:59;;;;;;;2.67;1.07;;;;;;;;;;5024665;28;20200;-57
2022/12/18 01:11:26;;;;;;;2.97;0.40;;;;;;;;;;5038007;28;20232;-60
2022/12/18 01:13:53;;;;;;;1.63;1.33;;;;;;;;;;5042152;28;20207;-59
2022/12/18 01:16:20;;;;;;;0.97;0.97;;;;;;;;;;5027867;28;20745;-57
2022/12/18 01:18:49;;;;;;;0.73;0.73;;;;;;;;;;5025956;28;20231;-60
2022/12/18 01:21:17;;;;;;;2.43;0.50;;;;;;;;;;5027818;28;20252;-58
2022/12/18 01:23:44;;;;;;;2.30;1.27;;;;;;;;;;5028025;28;20594;-58
2022/12/18 01:26:12;;;;;;;3.33;0.87;;;;;;;;;;5036213;28;20662;-58
2022/12/18 01:28:40;;;;;;;0.93;0.93;;;;;;;;;;5041374;28;20213;-58
2022/12/18 01:31:11;;;;;;;2.70;1.20;;;;;;;;;;5027917;28;20473;-59
2022/12/18 01:33:38;;;;;;;0.50;0.50;;;;;;;;;;5032832;28;20376;-60
2022/12/18 01:36:07;;;;;;;6.20;1.33;;;;;;;;;;5040323;28;20208;-60
2022/12/18 01:38:34;;;;;;;1.63;1.47;;;;;;;;;;5040812;28;20226;-59
2022/12/18 01:41:01;;;;;;;2.13;2.00;;;;;;;;;;5026605;28;20215;-57
2022/12/18 01:43:49;;;;;;;2.80;1.77;;;;;;;;;;5028256;28;20199;-60
2022/12/18 01:46:16;;;;;;;0.27;0.27;;;;;;;;;;5046847;28;20211;-60
2022/12/18 01:48:44;;;;;;;0.70;0.70;;;;;;;;;;5042042;28;20632;-58
2022/12/18 01:51:13;;;;;;;1.70;1.47;;;;;;;;;;5026757;28;20204;-58
2022/12/18 01:53:41;;;;;;;3.83;2.23;;;;;;;;;;5029749;28;20204;-58
2022/12/18 01:56:08;;;;;;;2.53;0.97;;;;;;;;;;5045529;28;20231;-58
2022/12/18 01:58:38;;;;;;;0.73;0.73;;;;;;;;;;5043910;28;21009;-58
2022/12/18 02:01:05;;;;;;;2.20;2.00;;;;;;;;;;5039859;28;20208;-58
2022/12/18 02:03:32;;;;;;;3.33;2.13;;;;;;;;;;5045134;28;20214;-60
2022/12/18 02:06:06;;;;;;;0.20;0.20;;;;;;;;;;5035601;28;20226;-60
2022/12/18 02:08:38;;;;;;;1.20;0.60;;;;;;;;;;5050521;28;20211;-59
2022/12/18 02:11:08;;;;;;;0.97;0.97;;;;;;;;;;5049569;28;20254;-58
2022/12/18 02:13:39;;;;;;;1.00;1.00;;;;;;;;;;5049673;28;20207;-60
2022/12/18 02:16:10;;;;;;;2.43;1.20;;;;;;;;;;5030381;28;20211;-58
2022/12/18 02:18:39;;;;;;;0.30;0.30;;;;;;;;;;5029875;28;20208;-58
2022/12/18 02:21:11;;;;;;;6.73;1.37;;;;;;;;;;5030398;28;20204;-59
2022/12/18 02:23:47;;;;;;;3.50;1.83;;;;;;;;;;5033802;28;20200;-59
2022/12/18 02:26:28;;;;;;;1.50;1.13;;;;;;;;;;5028429;28;20229;-59
2022/12/18 02:28:56;;;;;;;3.20;1.47;;;;;;;;;;5033738;28;20212;-59
2022/12/18 02:31:25;;;;;;;1.00;1.00;;;;;;;;;;5027967;28;20239;-59
2022/12/18 02:33:56;;;;;;;3.50;1.63;;;;;;;;;;5040024;28;20207;-60
2022/12/18 02:36:24;;;;;;;2.10;1.33;;;;;;;;;;5048345;28;20573;-58
2022/12/18 02:38:52;;;;;;;0.87;0.87;;;;;;;;;;5039348;28;20674;-59
2022/12/18 02:41:20;;;;;;;2.97;1.30;;;;;;;;;;5027696;28;20212;-59
2022/12/18 02:43:48;;;;;;;2.53;2.07;;;;;;;;;;5043989;28;20203;-59
2022/12/18 02:46:27;;;;;;;5.73;1.83;;;;;;;;;;5049794;28;20214;-59
2022/12/18 02:48:57;;;;;;;0.60;0.60;;;;;;;;;;5041049;28;20215;-59
2022/12/18 02:51:27;;;;;;;1.00;0.70;;;;;;;;;;5049448;28;20218;-58
2022/12/18 02:53:57;;;;;;;1.63;0.67;;;;;;;;;;5037999;28;20204;-59
2022/12/18 02:56:30;;;;;;;2.23;1.50;;;;;;;;;;5029483;28;20245;-59
2022/12/18 02:58:59;;;;;;;4.43;1.70;;;;;;;;;;5043517;28;20211;-59
2022/12/18 03:01:32;;;;;;;1.87;1.40;;;;;;;;;;5043982;28;20231;-59
2022/12/18 03:04:02;;;;;;;1.20;1.10;;;;;;;;;;5043706;28;20620;-59
2022/12/18 03:06:31;;;;;;;1.33;1.33;;;;;;;;;;5045545;28;20200;-59
2022/12/18 03:09:00;;;;;;;0.87;0.87;;;;;;;;;;5035388;28;20585;-59
2022/12/18 03:14:11;;;;;;;2.83;1.23;;;;;;;;;;5008357;28;20211;-59
2022/12/18 03:16:39;;;;;;;1.43;1.33;;;;;;;;;;5028504;28;20214;-58
2022/12/18 03:19:08;;;;;;;0.47;0.47;;;;;;;;;;5029706;28;20235;-58
2022/12/18 03:21:38;;;;;;;3.57;1.23;;;;;;;;;;5045720;28;20206;-58
2022/12/18 03:24:07;;;;;;;0.73;0.70;;;;;;;;;;5042639;28;20451;-59
2022/12/18 03:26:36;;;;;;;1.27;1.27;;;;;;;;;;5027869;28;20466;-59
2022/12/18 03:29:05;;;;;;;0.97;0.53;;;;;;;;;;5031574;28;20462;-59
2022/12/18 03:31:32;;;;;;;0.57;0.57;;;;;;;;;;5028033;28;20206;-58
2022/12/18 03:34:01;;;;;;;0.90;0.73;;;;;;;;;;5034544;28;20468;-59
2022/12/18 03:36:28;;;;;;;0.57;0.57;;;;;;;;;;5049477;28;20215;-58
2022/12/18 03:38:55;;;;;;;1.90;0.97;;;;;;;;;;5045900;28;20450;-59
2022/12/18 03:41:28;;;;;;;0.73;0.73;;;;;;;;;;5047666;28;20309;-59
2022/12/18 03:44:05;;;;;;;0.37;0.37;;;;;;;;;;5045285;28;20207;-59
2022/12/18 03:46:39;;;;;;;2.10;0.93;;;;;;;;;;5029537;28;20690;-58
2022/12/18 03:49:10;;;;;;;0.37;0.37;;;;;;;;;;5037565;28;20204;-59
2022/12/18 03:51:39;;;;;;;1.03;1.03;;;;;;;;;;5033200;28;20202;-59
2022/12/18 03:54:08;;;;;;;1.70;1.60;;;;;;;;;;5029389;28;20237;-59
2022/12/18 03:56:38;;;;;;;2.77;1.37;;;;;;;;;;5027889;28;20260;-59
2022/12/18 03:59:07;;;;;;;1.10;0.30;;;;;;;;;;5032713;28;20219;-58
2022/12/18 04:01:36;;;;;;;2.23;1.13;;;;;;;;;;5047227;28;20228;-59
2022/12/18 04:04:04;;;;;;;0.87;0.77;;;;;;;;;;5046416;28;20212;-58
2022/12/18 04:06:31;;;;;;;0.57;0.57;;;;;;;;;;5028913;28;20217;-59
2022/12/18 04:08:59;;;;;;;1.13;1.03;;;;;;;;;;5037701;28;20219;-58
2022/12/18 04:11:26;;;;;;;7.03;1.47;;;;;;;;;;5028464;28;20479;-58
2022/12/18 04:13:57;;;;;;;0.83;0.83;;;;;;;;;;5028758;28;20491;-59
2022/12/18 04:16:25;;;;;;;0.37;0.37;;;;;;;;;;5030129;28;20485;-59
2022/12/18 04:18:52;;;;;;;3.00;1.00;;;;;;;;;;5046705;28;20238;-59
2022/12/18 04:21:20;;;;;;;2.10;1.40;;;;;;;;;;5029224;28;20212;-59
2022/12/18 04:23:47;;;;;;;4.67;1.77;;;;;;;;;;5026799;28;20254;-59
2022/12/18 04:26:14;;;;;;;1.03;1.03;;;;;;;;;;5028507;28;20215;-59
2022/12/18 04:28:41;;;;;;;0.43;0.43;;;;;;;;;;5028153;28;20215;-59
2022/12/18 04:31:08;;;;;;;2.63;1.50;;;;;;;;;;5044269;28;20211;-58
2022/12/18 04:33:36;;;;;;;4.23;1.30;;;;;;;;;;5048305;28;21004;-59
2022/12/18 04:36:03;;;;;;;1.23;1.13;;;;;;;;;;5031908;28;20212;-59
2022/12/18 04:38:30;;;;;;;2.90;2.37;;;;;;;;;;5043339;28;20226;-59
2022/12/18 04:40:57;;;;;;;0.87;0.87;;;;;;;;;;5028402;28;20462;-59
2022/12/18 04:43:24;;;;;;;0.87;0.67;;;;;;;;;;5045110;28;20617;-59
2022/12/18 04:45:51;;;;;;;2.10;1.90;;;;;;;;;;5027209;28;20212;-59
2022/12/18 04:48:20;;;;;;;3.07;1.90;;;;;;;;;;5028496;28;20208;-59
2022/12/18 04:50:48;;;;;;;4.03;2.20;;;;;;;;;;5044592;28;20209;-59
2022/12/18 04:53:15;;;;;;;1.17;0.63;;;;;;;;;;5048040;28;20319;-59
2022/12/18 04:55:42;;;;;;;0.57;0.57;;;;;;;;;;5030455;28;20241;-59
2022/12/18 04:58:09;;;;;;;5.63;4.23;;;;;;;;;;5042650;28;20604;-59
2022/12/18 05:00:36;;;;;;;1.17;1.17;;;;;;;;;;5030340;28;20850;-59
2022/12/18 05:03:04;;;;;;;1.27;1.00;;;;;;;;;;5028003;28;20461;-59
2022/12/18 05:05:31;;;;;;;0.73;0.73;;;;;;;;;;5042169;28;20852;-59
2022/12/18 05:07:59;;;;;;;0.80;0.80;;;;;;;;;;5046954;28;20218;-60
2022/12/18 05:10:26;;;;;;;2.67;2.43;;;;;;;;;;5032346;28;20235;-59
2022/12/18 05:12:59;;;;;;;0.67;0.67;;;;;;;;;;5026282;28;20318;-59
2022/12/18 05:15:28;;;;;;;2.00;1.70;;;;;;;;;;5040471;28;20670;-59
2022/12/18 05:17:55;;;;;;;2.20;0.87;;;;;;;;;;5047878;28;20207;-59
2022/12/18 05:20:22;;;;;;;1.07;0.70;;;;;;;;;;5047527;28;20773;-59
2022/12/18 05:22:49;;;;;;;1.73;1.63;;;;;;;;;;5046906;28;20211;-59
2022/12/18 05:25:17;;;;;;;1.60;1.50;;;;;;;;;;5043145;28;20208;-59
2022/12/18 05:27:44;;;;;;;0.60;0.60;;;;;;;;;;5047904;28;20307;-59
2022/12/18 05:30:12;;;;;;;1.90;1.30;;;;;;;;;;5034398;28;20217;-59
2022/12/18 05:32:39;;;;;;;3.70;1.37;;;;;;;;;;5027571;28;20653;-59
2022/12/18 05:35:08;;;;;;;1.03;1.03;;;;;;;;;;5027316;28;20242;-59
2022/12/18 05:37:35;;;;;;;0.60;0.60;;;;;;;;;;5027912;28;20577;-59
2022/12/18 05:40:02;;;;;;;0.90;0.90;;;;;;;;;;5041358;28;20203;-59
2022/12/18 05:42:30;;;;;;;1.03;1.03;;;;;;;;;;5041335;28;20227;-60
2022/12/18 05:44:57;;;;;;;1.83;1.13;;;;;;;;;;5042208;28;20911;-59
2022/12/18 05:47:24;;;;;;;6.37;2.13;;;;;;;;;;5050334;28;20281;-58
2022/12/18 05:49:51;;;;;;;0.93;0.90;;;;;;;;;;5039072;28;20223;-59
2022/12/18 05:52:19;;;;;;;13.40;2.30;;;;;;;;;;5031498;28;20454;-59
2022/12/18 05:54:46;;;;;;;0.43;0.43;;;;;;;;;;5031247;28;20207;-59
2022/12/18 05:57:13;;;;;;;1.63;1.63;;;;;;;;;;5041996;28;20219;-59
2022/12/18 05:59:41;;;;;;;10.93;1.77;;;;;;;;;;5041150;28;20214;-59
2022/12/18 06:02:08;;;;;;;1.47;1.37;;;;;;;;;;5030504;28;20927;-59
2022/12/18 06:04:35;;;;;;;0.23;0.23;;;;;;;;;;5047454;28;20563;-59
2022/12/18 06:07:02;;;;;;;0.90;0.90;;;;;;;;;;5041134;28;20214;-59
2022/12/18 06:09:30;;;;;;;5.53;1.07;;;;;;;;;;5048906;28;20248;-59
2022/12/18 06:11:57;;;;;;;4.73;1.43;;;;;;;;;;5048506;28;20210;-60
2022/12/18 06:14:24;;;;;;;0.30;0.30;;;;;;;;;;5048257;28;20314;-59
2022/12/18 06:16:53;;;;;;;0.63;0.63;;;;;;;;;;5047926;28;20221;-59
2022/12/18 06:19:21;;;;;;;3.77;1.17;;;;;;;;;;5040059;28;20204;-59
2022/12/18 06:21:49;;;;;;;3.97;1.27;;;;;;;;;;5034358;28;20219;-59
2022/12/18 06:24:16;;;;;;;2.77;1.20;;;;;;;;;;5043378;28;20659;-59
2022/12/18 06:26:43;;;;;;;1.27;1.17;;;;;;;;;;5028724;28;20459;-59
2022/12/18 06:29:10;;;;;;;0.93;0.70;;;;;;;;;;5036639;28;20593;-59
2022/12/18 06:31:37;;;;;;;3.60;1.23;;;;;;;;;;5050259;28;20238;-59
2022/12/18 06:34:06;;;;;;;1.60;0.83;;;;;;;;;;5044697;28;20252;-59
2022/12/18 06:36:33;;;;;;;0.47;0.47;;;;;;;;;;5044161;28;20211;-59
2022/12/18 06:39:01;;;;;;;5.43;1.13;;;;;;;;;;5041172;28;20231;-59
2022/12/18 06:41:28;;;;;;;2.33;1.87;;;;;;;;;;5033638;28;20209;-59
2022/12/18 06:43:55;;;;;;;3.00;1.43;;;;;;;;;;5047701;28;20209;-59
2022/12/18 06:46:22;;;;;;;1.80;1.23;;;;;;;;;;5050136;28;20205;-59
2022/12/18 06:48:50;;;;;;;0.67;0.67;;;;;;;;;;5031056;28;20219;-59
2022/12/18 06:51:19;;;;;;;2.00;0.83;;;;;;;;;;5029074;28;20255;-59
2022/12/18 06:53:46;;;;;;;1.73;1.10;;;;;;;;;;5029858;28;20231;-60
2022/12/18 06:56:14;;;;;;;1.17;0.97;;;;;;;;;;5044086;28;20215;-59
2022/12/18 06:58:41;;;;;;;0.90;0.90;;;;;;;;;;5029384;28;20406;-59
2022/12/18 07:01:09;;;;;;;2.67;0.97;;;;;;;;;;5029569;28;20208;-59
2022/12/18 07:03:36;;;;;;;1.30;1.30;;;;;;;;;;5027813;28;20204;-59
2022/12/18 07:06:04;;;;;;;0.53;0.53;;;;;;;;;;5048663;28;20212;-59
2022/12/18 07:08:33;;;;;;;4.17;1.53;;;;;;;;;;5032370;28;20300;-59
2022/12/18 07:11:00;;;;;;;1.17;1.13;;;;;;;;;;5045841;28;20246;-59
2022/12/18 07:13:27;;;;;;;0.80;0.80;;;;;;;;;;5038346;28;20576;-59
2022/12/18 07:15:54;;;;;;;1.63;1.57;;;;;;;;;;5030555;28;20307;-59
2022/12/18 07:18:21;;;;;;;3.57;1.47;;;;;;;;;;5029432;28;20216;-59
2022/12/18 07:20:48;;;;;;;3.63;1.37;;;;;;;;;;5042737;28;20217;-59
2022/12/18 07:23:15;;;;;;;1.73;1.47;;;;;;;;;;5047628;28;20204;-59
2022/12/18 07:25:44;;;;;;;2.80;2.40;;;;;;;;;;5048398;28;20215;-60
2022/12/18 07:28:12;;;;;;;2.90;2.23;;;;;;;;;;5041803;28;20227;-59
2022/12/18 07:30:39;;;;;;;0.80;0.80;;;;;;;;;;5049150;28;20215;-59
2022/12/18 07:33:06;;;;;;;2.13;2.00;;;;;;;;;;5039839;28;20217;-59
2022/12/18 07:35:34;;;;;;;1.23;1.23;;;;;;;;;;5028459;28;20212;-59
2022/12/18 07:38:01;;;;;;;2.23;2.03;;;;;;;;;;5044249;28;20211;-59
2022/12/18 07:40:28;;;;;;;1.40;1.30;;;;;;;;;;5049048;28;20260;-59
2022/12/18 07:42:56;;;;;;;3.37;1.20;;;;;;;;;;5043227;28;20204;-59
2022/12/18 07:45:23;;;;;;;1.83;1.77;;;;;;;;;;5036346;28;20203;-59
2022/12/18 07:47:50;;;;;;;1.67;1.43;;;;;;;;;;5044634;28;20207;-59
2022/12/18 07:50:17;;;;;;;1.67;1.43;;;;;;;;;;5039149;28;20211;-59
2022/12/18 07:52:44;;;;;;;3.23;1.27;;;;;;;;;;5031854;28;20212;-59
2022/12/18 07:55:11;;;;;;;1.60;1.50;;;;;;;;;;5048615;28;20241;-59
2022/12/18 07:57:39;;;;;;;5.80;1.50;;;;;;;;;;5038279;28;20200;-59
2022/12/18 08:00:08;;;;;;;4.27;3.03;;;;;;;;;;5028352;28;20567;-59
2022/12/18 08:02:35;;;;;;;3.83;2.00;;;;;;;;;;5025462;28;20219;-59
2022/12/18 08:05:02;;;;;;;2.43;2.23;;;;;;;;;;5028384;28;20783;-59
2022/12/18 08:07:29;;;;;;;7.17;3.30;;;;;;;;;;5028610;28;20256;-59
2022/12/18 08:09:56;;;;;;;6.33;1.80;;;;;;;;;;5028103;28;20238;-60
2022/12/18 08:12:23;;;;;;;5.60;2.97;;;;;;;;;;5029016;28;20216;-59
2022/12/18 08:14:50;;;;;;;2.60;1.97;;;;;;;;;;5040531;28;20250;-58
2022/12/18 08:17:19;;;;;;;4.00;2.07;;;;;;;;;;5044860;28;20220;-59
2022/12/18 08:19:46;;;;;;;3.50;1.73;;;;;;;;;;5027855;28;20231;-59
2022/12/18 08:22:13;;;;;;;1.47;1.40;;;;;;;;;;5029835;28;20204;-60
2022/12/18 08:24:40;;;;;;;2.47;2.23;;;;;;;;;;5040275;28;20203;-60
2022/12/18 08:27:07;;;;;;;1.80;1.67;;;;;;;;;;5047677;28;20211;-60
2022/12/18 08:29:34;;;;;;;3.00;2.20;;;;;;;;;;5046015;28;20208;-60
2022/12/18 08:32:01;;;;;;;2.37;2.10;;;;;;;;;;5047658;28;20614;-60
2022/12/18 08:34:30;;;;;;;2.50;2.30;;;;;;;;;;5037252;28;20878;-59
2022/12/18 08:36:57;;;;;;;2.43;2.33;;;;;;;;;;5025104;28;20207;-59
2022/12/18 08:39:24;;;;;;;2.10;1.23;;;;;;;;;;5027828;28;20204;-59
2022/12/18 08:44:41;;;;;;;3.50;1.20;;;;;;;;;;5037685;28;20662;-58
2022/12/18 08:47:08;;;;;;;6.70;2.23;;;;;;;;;;5047427;28;20394;-59
2022/12/18 08:49:37;;;;;;;3.93;2.23;;;;;;;;;;5038699;28;20234;-60
2022/12/18 08:52:04;;;;;;;1.17;1.13;;;;;;;;;;5027364;28;20318;-59
2022/12/18 08:54:31;;;;;;;1.87;1.77;;;;;;;;;;5027945;28;21005;-61
2022/12/18 08:56:58;;;;;;;1.47;1.37;;;;;;;;;;5027275;28;20556;-59
2022/12/18 08:59:26;;;;;;;2.57;2.33;;;;;;;;;;5027447;28;20208;-59
2022/12/18 09:01:55;;;;;;;6.33;2.00;;;;;;;;;;5027276;28;20232;-59
2022/12/18 09:04:22;;;;;;;2.13;1.73;;;;;;;;;;5025243;28;20214;-59
2022/12/18 09:06:50;;;;;;;2.87;2.00;;;;;;;;;;5032933;28;20211;-59
2022/12/18 09:09:17;;;;;;;2.77;2.30;;;;;;;;;;5028257;28;20223;-60
2022/12/18 09:11:44;;;;;;;5.73;3.10;;;;;;;;;;5027195;28;20208;-59
2022/12/18 09:14:11;;;;;;;4.37;3.07;;;;;;;;;;5041707;28;20227;-60
2022/12/18 09:16:38;;;;;;;2.00;1.80;;;;;;;;;;5045488;28;20212;-60
2022/12/18 09:19:06;;;;;;;2.00;1.83;;;;;;;;;;5045521;28;20373;-60
2022/12/18 09:21:34;;;;;;;2.80;1.03;;;;;;;;;;5040053;28;20215;-60
2022/12/18 09:24:06;;;;;;;4.90;3.70;;;;;;;;;;5032503;28;20239;-60
2022/12/18 09:26:33;;;;;;;1.60;1.60;;;;;;;;;;5024989;28;20231;-64
2022/12/18 09:29:01;;;;;;;0.93;0.93;;;;;;;;;;5027248;28;20223;-66
2022/12/18 09:31:28;;;;;;;3.27;2.47;;;;;;;;;;5041120;28;20208;-60
2022/12/18 09:33:56;;;;;;;4.43;3.10;;;;;;;;;;5039780;28;20228;-60
2022/12/18 09:36:23;;;;;;;3.20;2.87;;;;;;;;;;5026680;28;20357;-61
2022/12/18 09:38:50;;;;;;;5.53;3.73;;;;;;;;;;5042708;28;20210;-60
2022/12/18 09:41:24;;;;;;;6.27;3.53;;;;;;;;;;5038408;28;20643;-61
2022/12/18 09:43:52;;;;;;;4.17;3.33;;;;;;;;;;5036827;28;20219;-60
2022/12/18 09:46:25;;;;;;;4.77;2.57;;;;;;;;;;5045064;28;20577;-60
2022/12/18 09:48:53;;;;;;;6.70;3.57;;;;;;;;;;5041003;28;20278;-60
2022/12/18 09:51:22;;;;;;;5.27;2.17;;;;;;;;;;5033523;28;20206;-59
2022/12/18 09:53:53;;;;;;;6.13;4.03;;;;;;;;;;5026819;28;20210;-59
2022/12/18 09:56:24;;;;;;;2.30;2.20;;;;;;;;;;5034471;28;20223;-60
2022/12/18 09:58:54;;;;;;;3.40;1.63;;;;;;;;;;5042707;28;20293;-60
2022/12/18 10:01:22;;;;;;;6.83;3.43;;;;;;;;;;5045193;28;20696;-60
2022/12/18 10:03:49;;;;;;;2.87;2.13;;;;;;;;;;5026142;28;20615;-60
2022/12/18 10:06:20;;;;;;;2.50;2.40;;;;;;;;;;5026022;28;20408;-60
2022/12/18 10:08:50;;;;;;;3.23;3.03;;;;;;;;;;5036958;28;20207;-60
2022/12/18 10:11:33;;;;;;;1.60;1.50;;;;;;;;;;5026212;28;20261;-61
2022/12/18 10:14:03;;;;;;;8.67;2.87;;;;;;;;;;5025737;28;20236;-60
2022/12/18 10:16:35;;;;;;;3.87;2.60;;;;;;;;;;5026198;28;20216;-61
2022/12/18 10:19:07;;;;;;;5.07;3.87;;;;;;;;;;5025742;28;20212;-60
2022/12/18 10:21:37;;;;;;;10.37;3.57;;;;;;;;;;5026263;28;20223;-60
2022/12/18 10:24:14;;;;;;;3.33;2.87;;;;;;;;;;5025882;28;20587;-64
2022/12/18 10:26:43;;;;;;;10.47;3.70;;;;;;;;;;5041609;28;20666;-61
2022/12/18 10:29:12;;;;;;;6.47;5.37;;;;;;;;;;5049325;28;20217;-61
2022/12/18 10:31:39;;;;;;;3.77;2.27;;;;;;;;;;5047790;28;20212;-62
2022/12/18 10:34:10;;;;;;;3.93;3.37;;;;;;;;;;5049438;28;20229;-61
2022/12/18 10:36:37;;;;;;;7.87;4.37;;;;;;;;;;5037623;28;20446;-61
2022/12/18 10:39:16;;;;;;;2.50;2.27;;;;;;;;;;5029195;28;20457;-61
2022/12/18 10:41:44;;;;;;;6.57;3.10;;;;;;;;;;5030155;28;20686;-61
2022/12/18 10:44:13;;;;;;;4.80;3.53;;;;;;;;;;5028982;28;20236;-61
2022/12/18 10:46:40;;;;;;;8.83;4.17;;;;;;;;;;5037903;28;20205;-61
2022/12/18 10:49:20;;;;;;;3.63;3.20;;;;;;;;;;5029360;28;20690;-61
2022/12/18 10:51:47;;;;;;;7.57;2.20;;;;;;;;;;5043790;28;20196;-60
2022/12/18 10:54:16;;;;;;;7.63;5.10;;;;;;;;;;5043230;28;20227;-60
2022/12/18 10:56:44;;;;;;;3.90;3.20;;;;;;;;;;5034362;28;20228;-60
2022/12/18 10:59:13;;;;;;;3.67;3.37;;;;;;;;;;5036584;28;20208;-60
2022/12/18 11:01:50;;;;;;;3.60;3.30;;;;;;;;;;5042005;28;20208;-61
2022/12/18 11:04:21;;;;;;;5.60;3.33;;;;;;;;;;5032349;28;20672;-59
2022/12/18 11:06:59;;;;;;;8.73;4.53;;;;;;;;;;5028874;28;20232;-60
2022/12/18 11:09:27;;;;;;;3.13;2.23;;;;;;;;;;5034619;28;20293;-60
2022/12/18 11:11:57;;;;;;;6.27;3.07;;;;;;;;;;5046214;28;20228;-64
2022/12/18 11:14:24;;;;;;;6.73;4.03;;;;;;;;;;5034449;28;20593;-60
2022/12/18 11:16:52;;;;;;;10.50;3.93;;;;;;;;;;5036485;28;20200;-61
2022/12/18 11:19:31;;;;;;;4.90;2.03;;;;;;;;;;5048440;28;20220;-61
2022/12/18 11:21:59;;;;;;;8.00;4.17;;;;;;;;;;5035930;28;20293;-61
2022/12/18 11:24:29;;;;;;;2.47;2.20;;;;;;;;;;5048883;28;20695;-60
2022/12/18 11:26:57;;;;;;;8.97;4.20;;;;;;;;;;5036272;28;20212;-62
2022/12/18 11:29:26;;;;;;;2.67;2.47;;;;;;;;;;5036307;28;20207;-61
2022/12/18 11:31:53;;;;;;;10.80;3.33;;;;;;;;;;5032702;28;20201;-63
2022/12/18 11:34:24;;;;;;;8.57;4.13;;;;;;;;;;5032053;28;20223;-60
2022/12/18 11:36:52;;;;;;;8.87;4.27;;;;;;;;;;5043734;28;20204;-64
2022/12/18 11:39:22;;;;;;;26.45;10.93;;;;;;;;;;5045651;28;20564;-62
2022/12/18 11:42:11;;;;;;;13.20;5.53;;;;;;;;;;5036201;28;20211;-59
2022/12/18 11:44:43;;;;;;;5.83;3.43;;;;;;;;;;5028858;28;20216;-59
2022/12/18 11:47:15;;;;;;;11.00;2.37;;;;;;;;;;5030623;28;20270;-63
2022/12/18 11:49:43;;;;;;;4.13;3.17;;;;;;;;;;5036027;28;20211;-58
2022/12/18 11:52:11;;;;;;;8.07;3.93;;;;;;;;;;5045095;28;20207;-59
2022/12/18 11:54:38;;;;;;;6.60;4.30;;;;;;;;;;5036901;28;20250;-62
2022/12/18 11:57:10;;;;;;;5.77;3.60;;;;;;;;;;5038566;28;20528;-59
2022/12/18 11:59:42;;;;;;;17.95;8.55;;;;;;;;;;5026057;28;20453;-61
2022/12/18 12:02:21;;;;;;;13.50;5.10;;;;;;;;;;5027883;28;20929;-65
2022/12/18 12:04:51;;;;;;;9.87;3.07;;;;;;;;;;5028417;28;20550;-59
2022/12/18 12:07:23;;;;;;;8.53;4.63;;;;;;;;;;5038724;28;20218;-59
2022/12/18 12:09:55;;;;;;;22.40;8.30;;;;;;;;;;5034641;28;20579;-60
2022/12/18 12:12:28;;;;;;;11.97;4.10;;;;;;;;;;5039356;28;20387;-60
2022/12/18 12:14:59;;;;;;;7.90;3.33;;;;;;;;;;5035654;28;20243;-60
2022/12/18 12:17:33;;;;;;;8.17;4.40;;;;;;;;;;5035319;28;20205;-60
2022/12/18 12:20:02;;;;;;;7.17;5.80;;;;;;;;;;5038861;28;20648;-59
2022/12/18 12:22:32;;;;;;;5.30;2.37;;;;;;;;;;5045723;28;20222;-59
2022/12/18 12:25:05;;;;;;;6.23;3.50;;;;;;;;;;5040985;28;20299;-60
2022/12/18 12:27:39;;;;;;;1.40;1.40;;;;;;;;;;5041387;28;20261;-60
2022/12/18 12:30:20;;;;;;;6.77;2.83;;;;;;;;;;5028981;28;20235;-60
2022/12/18 12:32:53;;;;;;;2.00;1.50;;;;;;;;;;5046762;28;20203;-60
2022/12/18 12:35:27;;;;;;;5.10;3.80;;;;;;;;;;5032127;28;20232;-60
2022/12/18 12:38:02;;;;;;;8.93;5.07;;;;;;;;;;5041856;28;20218;-60
2022/12/18 12:40:31;;;;;;;3.00;2.70;;;;;;;;;;5039721;28;20670;-60
2022/12/18 12:43:15;;;;;;;1.33;1.20;;;;;;;;;;5031948;28;20209;-59
2022/12/18 12:45:44;;;;;;;7.27;3.00;;;;;;;;;;5027554;28;20783;-60
2022/12/18 12:48:17;;;;;;;1.63;1.40;;;;;;;;;;5030836;28;20204;-60
2022/12/18 12:50:45;;;;;;;2.20;2.03;;;;;;;;;;5031361;28;20206;-59
2022/12/18 12:56:00;;;;;;;8.20;2.70;;;;;;;;;;5009084;28;20242;-64
2022/12/18 12:58:32;;;;;;;3.23;2.83;;;;;;;;;;5001122;28;20707;-61
2022/12/18 13:01:03;;;;;;;9.63;4.13;;;;;;;;;;5032499;28;20203;-60
2022/12/18 13:03:36;;;;;;;8.00;3.20;;;;;;;;;;5028410;28;20736;-60
2022/12/18 13:06:06;;;;;;;6.97;3.80;;;;;;;;;;5034146;28;20203;-60
2022/12/18 13:08:34;;;;;;;6.43;2.37;;;;;;;;;;5026801;28;20216;-63
2022/12/18 13:13:52;;;;;;;9.13;3.83;;;;;;;;;;5028030;28;20214;-61
2022/12/18 13:16:20;;;;;;;5.53;2.60;;;;;;;;;;5029773;28;20223;-61
2022/12/18 13:18:52;;;;;;;4.23;1.87;;;;;;;;;;5032561;28;20943;-61
2022/12/18 13:21:24;;;;;;;1.80;1.50;;;;;;;;;;5046865;28;20212;-63
2022/12/18 13:23:52;;;;;;;6.37;3.27;;;;;;;;;;5031852;28;20216;-61
2022/12/18 13:26:32;;;;;;;7.43;4.03;;;;;;;;;;5025650;28;20208;-61
2022/12/18 13:29:01;;;;;;;2.13;1.93;;;;;;;;;;5026100;28;20204;-61
2022/12/18 13:31:47;;;;;;;2.40;1.97;;;;;;;;;;5027677;28;20562;-61
2022/12/18 13:34:17;;;;;;;0.87;0.87;;;;;;;;;;5027421;28;20212;-61
2022/12/18 13:36:44;;;;;;;7.23;3.57;;;;;;;;;;5027703;28;20227;-60
2022/12/18 13:39:35;;;;;;;5.83;2.83;;;;;;;;;;5030139;28;20208;-61
2022/12/18 13:45:02;;;;;;;8.13;2.77;;;;;;;;;;5043119;28;20692;-61
2022/12/18 13:47:33;;;;;;;12.30;3.70;;;;;;;;;;5032702;28;20382;-61
2022/12/18 13:50:03;;;;;;;9.23;3.67;;;;;;;;;;5040308;28;20220;-61
2022/12/18 13:52:34;;;;;;;3.23;3.03;;;;;;;;;;5030238;28;20714;-62
2022/12/18 13:55:03;;;;;;;7.00;3.90;;;;;;;;;;5035687;28;20238;-62
2022/12/18 13:57:30;;;;;;;3.60;2.40;;;;;;;;;;5034459;28;20957;-62
2022/12/18 13:59:58;;;;;;;2.53;1.90;;;;;;;;;;5033107;28;20699;-62
2022/12/18 14:02:26;;;;;;;6.23;3.80;;;;;;;;;;5042861;28;20210;-61
2022/12/18 14:04:54;;;;;;;5.70;3.10;;;;;;;;;;5026305;28;20216;-61
2022/12/18 14:07:24;;;;;;;4.00;2.77;;;;;;;;;;5030253;28;20223;-62
2022/12/18 14:09:53;;;;;;;2.87;2.00;;;;;;;;;;5041531;28;20232;-62
2022/12/18 14:15:24;;;;;;;5.13;3.93;;;;;;;;;;5004839;28;20753;-61
2022/12/18 14:17:52;;;;;;;1.37;1.20;;;;;;;;;;5005746;28;20213;-64
2022/12/18 14:20:19;;;;;;;3.43;3.13;;;;;;;;;;5017427;28;20205;-65
2022/12/18 14:22:49;;;;;;;5.80;3.67;;;;;;;;;;5047365;28;20208;-62
2022/12/18 14:25:18;;;;;;;6.00;2.73;;;;;;;;;;5046498;28;20218;-62
2022/12/18 14:27:46;;;;;;;8.27;3.67;;;;;;;;;;5032356;28;20207;-63
2022/12/18 14:30:30;;;;;;;12.20;4.67;;;;;;;;;;5030638;28;20656;-60
2022/12/18 14:33:04;;;;;;;7.17;4.47;;;;;;;;;;5027946;28;20216;-64
2022/12/18 14:35:31;;;;;;;5.57;2.30;;;;;;;;;;5031592;28;20227;-62
2022/12/18 14:38:12;;;;;;;7.50;3.13;;;;;;;;;;5032367;28;20588;-65
2022/12/18 14:40:39;;;;;;;15.77;4.77;;;;;;;;;;5036948;28;20211;-63
2022/12/18 14:43:06;;;;;;;6.57;2.97;;;;;;;;;;5030059;28;20211;-61
2022/12/18 14:45:37;;;;;;;3.07;2.77;;;;;;;;;;5046558;28;20200;-62
2022/12/18 14:48:07;;;;;;;4.70;4.27;;;;;;;;;;5049644;28;20222;-59
2022/12/18 14:50:34;;;;;;;1.57;1.57;;;;;;;;;;5047552;28;20247;-60
2022/12/18 14:53:01;;;;;;;3.33;3.03;;;;;;;;;;5047284;28;20212;-61
2022/12/18 14:55:30;;;;;;;9.27;2.63;;;;;;;;;;5047677;28;20592;-61
2022/12/18 14:57:57;;;;;;;3.53;1.57;;;;;;;;;;5030109;28;20237;-62
2022/12/18 15:00:26;;;;;;;10.10;3.90;;;;;;;;;;5038914;28;20211;-63
2022/12/18 15:02:54;;;;;;;11.47;3.60;;;;;;;;;;5045235;28;20219;-60
2022/12/18 15:05:22;;;;;;;4.17;3.37;;;;;;;;;;5029852;28;20201;-62
2022/12/18 15:07:50;;;;;;;14.67;4.70;;;;;;;;;;5038458;28;20210;-61
2022/12/18 15:10:18;;;;;;;15.93;4.90;;;;;;;;;;5032256;28;20331;-62
2022/12/18 15:12:48;;;;;;;12.20;5.50;;;;;;;;;;5043316;28;20827;-61
2022/12/18 15:15:36;;;;;;;15.40;4.03;;;;;;;;;;5031966;28;20207;-62
2022/12/18 15:18:04;;;;;;;6.67;4.10;;;;;;;;;;5036729;28;20208;-60